默认 日期 大小 文件数 浏览量 最新下载 xml
-202磁力链接相关资源由用户搜索指令自动获取,结果来源于网络,本站不存储任何资料,亦不承担任何责任,请于24小时内删除,搜索到11720个磁力,显示前4000条数据,用时4ms。
    {"Gran Reserva - Temp.2 [DSRRIP][Cap.202][Spanish][www.pctestrenos.com].avi": 732274514}
创建时间: 2019-02-01 15:22:37 大小:698.35 MB 文件数量:1 热度:6 最近下载:2025-04-15 15:43:03
    {"LennarDigital_Sylenth1_VSTi_AU_v2_202_MAC_OSX_INTEL-ArCADE.zip": 13797907}
创建时间: 2019-02-01 15:51:45 大小:13.16 MB 文件数量:1 热度:4 最近下载:2022-11-12 10:25:18
    {"El Quinto Mandamiento - Temp.2 [DVDRIP][Cap.202][Spanish][newpct.com].avi": 363683840}
创建时间: 2019-02-01 16:03:20 大小:346.84 MB 文件数量:1 热度:7 最近下载:2025-09-18 16:54:03
    {"autorun.pdf": 11000, "www.limetorrents.com.jpg": 73400, "Torrent downloaded from 1337x.org.txt": 36, "Advanced SystemCare Pro 12.1.3.202 Multilingual + Medicine.exe": 39056046}
创建时间: 2019-02-01 16:29:11 大小:37.33 MB 文件数量:4 热度:9 最近下载:2025-04-13 04:54:03
    {"Nero Platinum 2019 Suite 202 0 05900 + Crack [CracksNow].exe": 5581408}
创建时间: 2019-02-01 16:55:09 大小:5.32 MB 文件数量:1 热度:3 最近下载:2022-11-12 10:41:22
    {"LennarDigital_Sylenth1_VSTi_AU_v2_202.zip": 10255889}
创建时间: 2019-02-01 17:02:03 大小:9.78 MB 文件数量:1 热度:3 最近下载:2022-11-12 10:19:59
    {"ADZ-202.jpg": 243026, "ADZ-202.rmvb": 497398657, "SIS001影视 ...
创建时间: 2019-02-01 17:35:33 大小:475.75 MB 文件数量:13 热度:19 最近下载:2025-08-03 15:27:06
    {"Visit babupc.com.url": 117, "setup-ltr-3.0.67.exe": 61526997, "Installation note.txt": 101, "Downloaded from BabuPC.com.txt": 1960, "Patch-Loaris.Trojan.Remover.3.0.x.rar": 393765}
创建时间: 2019-02-01 18:40:37 大小:59.05 MB 文件数量:5 热度:6 最近下载:2025-03-26 18:01:50
    {"autorun.pdf": 11000, "www.limetorrents.com.jpg": 73400, "Torrent downloaded from 1337x.org.txt": 36, "Advanced SystemCare Pro 12.1.3.202 Multilingual + Medicine.exe": 39056046}
创建时间: 2019-02-01 18:52:25 大小:37.33 MB 文件数量:4 热度:9 最近下载:2025-04-13 04:53:03
    {"[직촬] 100일 기념.avi": 33096028, "[직촬] 100일 기념.jpg": 88552, "Tosearch19 - 국내 성인토렌트 바로가기.url": 239}
创建时间: 2019-02-01 19:04:11 大小:31.65 MB 文件数量:3 热度:9 最近下载:2025-10-13 23:35:03
    {"Videos": {"Roxy Dee.mp4": 866224135, "Hazel Dew.mp4": 806944576, "Herda Wisky.mp4": 929854596, "Jenny Manson.mp4": 903177104, "Tetti Dew Korti.mp4": 881825718}, "Screens": {"Roxy Dee.mp4.jpg": 545327, "Hazel Dew.mp4.jpg": 540246, "Herda Wisky.mp4.jpg": ...
创建时间: 2019-02-01 19:09:07 大小:4.09 GB 文件数量:11 热度:8 最近下载:2024-09-19 10:35:01
    {"Nero Platinum 2019 Suite 202 0 05900 + Crack [CracksNow].exe": 5581408}
创建时间: 2019-02-01 20:15:27 大小:5.32 MB 文件数量:1 热度:4 最近下载:2022-11-15 20:21:25
    {"LennarDigital_Sylenth1_VSTi_AU_v2_202_MAC_OSX_INTEL-ArCADE2.zip": 11084894}
创建时间: 2019-02-01 21:37:38 大小:10.57 MB 文件数量:1 热度:4 最近下载:2022-11-15 19:42:29
    ... 結.txt": 912804, "hotavxxx.com_RHJ-202.jpg": 148297, "hotavxxx.com_RHJ-202A ... ❤18P2P.url": 214, "hotavxxx.com_RHJ-202.H264.avi": 1229404771, "宅男 ...
创建时间: 2019-02-01 21:45:59 大小:1.15 GB 文件数量:9 热度:28 最近下载:2025-08-03 19:59:09
    {"pctnew.com.url": 121, "descargas2020.url": 124, "TuMejorTorrent.url": 129, "torrentrapid.com.url": 123, "Jamestown - Temporada 2 [HDTV][Cap.202][Castellano][www.pctnew.com].avi": 592313130}
创建时间: 2019-02-01 22:49:30 大小:564.87 MB 文件数量:5 热度:4 最近下载:2025-04-11 19:55:07
    {"Readme.pdf": 8048, "Torrent downloaded from TorReviver torrents at BTS.to.txt": 36, "ArtPlus Digital Photo Recovery 9.2.9.202 Full With Medicine.exe": 10050386, "ArtPlus Digital Photo Recovery 9.2.9.202 Full With Medicine.nfo": 796}
创建时间: 2019-02-02 03:05:55 大小:9.59 MB 文件数量:4 热度:6 最近下载:2025-02-25 04:41:02
    {"blow-up-3-3.1.2.202": {"Patch.txt": 117, "Visit babupc.com.url": 117, "blow-up-3-3.1.2.202.exe": 36736661, "Downloaded from BabuPC.com.txt": 1960, "alien.skin.plugins.x86-x64-patch.rar": 335331}}
创建时间: 2019-02-02 03:20:33 大小:35.36 MB 文件数量:5 热度:3 最近下载:2022-11-15 19:34:53
    {"Readme!!.txt": 680, "WWW.YIFY-TORRENTS.COM.jpg": 83504, "Torrent downloaded from Flashtorrents.org.txt": 84, "DriverPack Solution 39.9.202-29194 Latest - DailyApp.exe": 11718530, "DriverPack Solution 39.9.202-29194 Latest - DailyApp.nfo": 1052}
创建时间: 2019-02-02 04:17:42 大小:11.26 MB 文件数量:5 热度:4 最近下载:2022-11-15 18:57:31
    {"Nero Platinum 2019 Suite 202 0 05900 + Crack [CracksNow].exe": 5581410}
创建时间: 2019-02-02 04:23:13 大小:5.32 MB 文件数量:1 热度:4 最近下载:2022-11-12 09:37:24
    {"pctnew.com.url": 121, "descargas2020.url": 124, "TuMejorTorrent.url": 129, "torrentrapid.com.url": 123, "19-2 - Temporada 2 [HDTV][Cap.202][Castellano][www.pctnew.com].avi": 546822776}
创建时间: 2019-02-02 04:31:49 大小:521.49 MB 文件数量:5 热度:4 最近下载:2022-11-15 19:42:27